createdAt,value
2022-09-07T00:10:22.361Z,2.60
2022-09-07T00:40:25.492Z,2.00
2022-09-07T01:10:29.482Z,2.00
2022-09-07T01:40:32.900Z,2.00
2022-09-07T02:10:36.057Z,2.40
2022-09-07T02:40:39.202Z,2.17
2022-09-07T03:10:42.680Z,2.25
2022-09-07T03:40:45.429Z,2.10
2022-09-07T04:10:49.139Z,2.53
2022-09-07T04:40:51.846Z,2.50
2022-09-07T05:10:55.862Z,2.93
2022-09-07T05:40:58.812Z,2.67
2022-09-07T06:11:02.121Z,3.05
2022-09-07T07:11:28.246Z,2.97
2022-09-07T08:11:54.476Z,3.07
2022-09-07T08:41:57.189Z,2.70
2022-09-07T09:12:00.725Z,2.53
2022-09-07T09:42:03.839Z,2.40
2022-09-07T10:12:08.414Z,2.50
2022-09-07T10:42:11.590Z,2.57
2022-09-07T11:12:15.361Z,2.20
2022-09-07T12:12:41.848Z,1.95
2022-09-07T13:43:31.011Z,2.93
2022-09-07T14:13:34.525Z,2.07
2022-09-07T14:43:37.202Z,2.10
2022-09-07T15:13:41.034Z,2.10
2022-09-07T15:43:43.754Z,2.10
2022-09-07T16:13:48.142Z,1.90
2022-09-07T16:43:50.999Z,2.00
2022-09-07T17:13:54.897Z,2.00
2022-09-07T17:43:57.747Z,1.95
2022-09-07T18:14:01.873Z,2.10
2022-09-07T18:44:04.667Z,2.80
2022-09-07T19:14:08.183Z,2.40
2022-09-07T19:44:10.892Z,2.63
2022-09-07T20:14:14.744Z,2.50
2022-09-07T20:44:17.474Z,3.13
2022-09-07T21:14:20.760Z,2.80
2022-09-07T21:44:23.788Z,3.10
2022-09-07T22:14:26.847Z,3.03
2022-09-07T22:44:29.562Z,3.53
2022-09-07T23:14:33.538Z,3.73
2022-09-07T23:44:36.310Z,3.80
